createdAt,value
2023-05-02T00:00:58.240Z,0.87
2023-05-02T00:01:58.237Z,0.88
2023-05-02T00:02:58.522Z,0.74
2023-05-02T00:03:58.425Z,0.66
2023-05-02T00:04:58.307Z,0.77
2023-05-02T00:05:58.359Z,0.66
2023-05-02T00:06:58.406Z,0.86
2023-05-02T00:07:58.415Z,0.64
2023-05-02T00:08:58.449Z,0.91
2023-05-02T00:09:58.721Z,0.97
2023-05-02T00:10:58.445Z,0.90
2023-05-02T00:11:58.477Z,1.04
2023-05-02T00:12:58.512Z,0.71
2023-05-02T00:13:58.522Z,1.02
2023-05-02T00:14:58.603Z,0.50
2023-05-02T00:15:58.730Z,0.45
2023-05-02T00:16:58.694Z,0.75
2023-05-02T00:17:58.666Z,0.74
2023-05-02T00:18:58.677Z,0.70
2023-05-02T00:19:58.843Z,0.68
2023-05-02T00:20:58.715Z,1.09
2023-05-02T00:21:58.792Z,1.00
2023-05-02T00:22:58.826Z,0.64
2023-05-02T00:23:58.816Z,0.73
2023-05-02T00:24:58.864Z,0.97
2023-05-02T00:25:58.854Z,0.52
2023-05-02T00:26:58.856Z,0.87
2023-05-02T00:27:58.945Z,0.75
2023-05-02T00:28:58.978Z,0.92
2023-05-02T00:29:59.116Z,0.63
2023-05-02T00:30:59.011Z,0.74
2023-05-02T00:31:59.020Z,0.95
2023-05-02T00:32:59.058Z,0.83
2023-05-02T00:33:59.039Z,0.81
2023-05-02T00:34:59.124Z,0.73
2023-05-02T00:35:59.123Z,0.58
2023-05-02T00:36:59.130Z,0.86
2023-05-02T00:37:59.174Z,0.97
2023-05-02T00:38:59.213Z,0.97
2023-05-02T00:39:59.435Z,0.79
2023-05-02T00:40:59.266Z,0.69
2023-05-02T00:41:59.294Z,0.59
2023-05-02T00:42:59.344Z,0.62
2023-05-02T00:43:59.340Z,0.98
2023-05-02T00:44:59.333Z,0.73
2023-05-02T00:45:59.452Z,0.73
2023-05-02T00:46:59.395Z,0.87
2023-05-02T00:47:59.548Z,0.93
2023-05-02T00:48:59.448Z,0.89
2023-05-02T00:49:59.581Z,0.66
2023-05-02T00:50:59.533Z,0.86
2023-05-02T00:51:59.614Z,0.64
2023-05-02T00:52:59.574Z,1.04
2023-05-02T00:53:59.665Z,0.93
2023-05-02T00:54:59.674Z,0.70
2023-05-02T00:55:59.682Z,0.83
2023-05-02T00:56:59.774Z,0.80
2023-05-02T00:57:59.754Z,1.20
2023-05-02T00:58:59.817Z,1.08
2023-05-02T00:59:59.927Z,1.00
2023-05-02T01:00:59.886Z,0.56
2023-05-02T01:02:00.034Z,1.06
2023-05-02T01:03:00.031Z,0.98
2023-05-02T01:04:00.201Z,0.79
2023-05-02T01:05:00.034Z,0.58
2023-05-02T01:06:00.084Z,0.35
2023-05-02T01:07:00.058Z,0.81
2023-05-02T01:08:00.155Z,0.89
2023-05-02T01:09:00.149Z,0.85
2023-05-02T01:10:00.493Z,0.98
2023-05-02T01:11:00.178Z,0.89
2023-05-02T01:12:00.249Z,0.56
2023-05-02T01:13:00.279Z,0.83
2023-05-02T01:14:00.282Z,0.70
2023-05-02T01:15:00.337Z,0.79
2023-05-02T01:16:00.456Z,0.79
2023-05-02T01:17:00.389Z,0.89
2023-05-02T01:18:00.467Z,0.85
2023-05-02T01:19:00.450Z,0.76
2023-05-02T01:20:00.793Z,0.70
2023-05-02T01:21:00.606Z,0.76
2023-05-02T01:22:00.566Z,0.78
2023-05-02T01:23:00.592Z,0.92
2023-05-02T01:24:00.613Z,0.83
2023-05-02T01:25:00.856Z,0.71
2023-05-02T01:26:00.748Z,0.74
2023-05-02T01:27:00.807Z,0.94
2023-05-02T01:28:00.782Z,0.85
2023-05-02T01:29:00.786Z,0.72
2023-05-02T01:30:01.136Z,0.88
2023-05-02T01:31:00.933Z,0.66
2023-05-02T01:32:01.058Z,0.89
2023-05-02T01:33:00.983Z,0.68
2023-05-02T01:34:01.009Z,0.95
2023-05-02T01:35:01.037Z,0.52
2023-05-02T01:36:01.065Z,0.55
2023-05-02T01:37:01.083Z,0.56
2023-05-02T01:38:01.135Z,0.79
2023-05-02T01:39:01.167Z,1.00
2023-05-02T01:40:01.532Z,0.91
2023-05-02T01:41:01.235Z,0.76
2023-05-02T01:42:01.313Z,0.72
2023-05-02T01:43:01.325Z,0.86
2023-05-02T01:44:01.369Z,0.66
2023-05-02T01:45:01.378Z,0.73
2023-05-02T01:46:01.416Z,0.78
2023-05-02T01:47:01.506Z,0.77
2023-05-02T01:48:01.537Z,0.81
2023-05-02T01:49:01.542Z,0.55
2023-05-02T01:50:01.816Z,0.79
2023-05-02T01:51:01.652Z,0.66
2023-05-02T01:52:01.733Z,0.69
2023-05-02T01:53:01.674Z,0.86
2023-05-02T01:54:01.718Z,0.82
2023-05-02T01:55:01.768Z,1.01
2023-05-02T01:56:01.826Z,0.73
2023-05-02T01:57:01.827Z,0.96
2023-05-02T01:58:01.865Z,1.01
2023-05-02T01:59:01.923Z,0.63
2023-05-02T02:00:02.334Z,0.78
2023-05-02T02:01:02.023Z,0.62
2023-05-02T02:02:02.091Z,0.69
2023-05-02T02:03:02.151Z,1.00
2023-05-02T02:04:02.204Z,1.03
2023-05-02T02:05:02.224Z,0.92
2023-05-02T02:06:02.295Z,0.74
2023-05-02T02:07:02.280Z,0.57
2023-05-02T02:08:02.359Z,0.87
2023-05-02T02:09:02.374Z,0.75
2023-05-02T02:10:02.604Z,0.53
2023-05-02T02:11:02.468Z,0.93
2023-05-02T02:12:02.517Z,0.71
2023-05-02T02:13:02.616Z,0.77
2023-05-02T02:14:02.622Z,0.67
2023-05-02T02:15:02.704Z,0.72
2023-05-02T02:16:02.730Z,0.72
2023-05-02T02:17:02.763Z,0.78
2023-05-02T02:18:02.817Z,0.77
2023-05-02T02:19:02.802Z,0.63
2023-05-02T02:20:02.896Z,0.78
2023-05-02T02:21:02.924Z,0.80
2023-05-02T02:22:02.979Z,0.91
2023-05-02T02:23:03.010Z,0.56
2023-05-02T02:24:03.038Z,0.64
2023-05-02T02:25:03.065Z,0.69
2023-05-02T02:26:03.114Z,0.81
2023-05-02T02:27:03.189Z,0.55
2023-05-02T02:28:03.245Z,0.86
2023-05-02T02:29:03.258Z,0.78
2023-05-02T02:30:03.392Z,0.74
2023-05-02T02:31:03.438Z,0.56
2023-05-02T02:32:03.405Z,0.95
2023-05-02T02:33:03.443Z,0.71
2023-05-02T02:34:03.535Z,0.87
2023-05-02T02:35:03.657Z,0.60
2023-05-02T02:36:03.581Z,1.05
2023-05-02T02:37:03.648Z,0.96
2023-05-02T02:38:03.681Z,0.79
2023-05-02T02:39:03.724Z,0.64
2023-05-02T02:40:03.865Z,0.72
2023-05-02T02:41:03.842Z,0.77
2023-05-02T02:42:03.843Z,0.74
2023-05-02T02:43:03.911Z,0.89
2023-05-02T02:44:03.917Z,0.67
2023-05-02T02:45:03.965Z,0.93
2023-05-02T02:46:04.039Z,0.69
2023-05-02T02:47:04.067Z,0.66
2023-05-02T02:48:04.130Z,0.98
2023-05-02T02:49:04.136Z,0.90
2023-05-02T02:50:04.191Z,0.81
2023-05-02T02:51:04.246Z,0.96
2023-05-02T02:52:04.288Z,0.64
2023-05-02T02:53:04.330Z,0.45
2023-05-02T02:54:09.844Z,0.70
2023-05-02T02:55:05.364Z,0.79
2023-05-02T02:56:04.422Z,0.93
2023-05-02T02:57:04.353Z,0.74
2023-05-02T02:58:04.358Z,0.85
2023-05-02T02:59:04.327Z,0.94
2023-05-02T03:00:04.338Z,0.80
2023-05-02T03:01:04.309Z,0.61
2023-05-02T03:02:04.369Z,0.79
2023-05-02T03:03:04.345Z,0.81
2023-05-02T03:04:04.363Z,1.26
2023-05-02T03:05:04.314Z,0.78
2023-05-02T03:06:04.416Z,0.89
2023-05-02T03:07:04.376Z,0.85
2023-05-02T03:08:04.426Z,0.90
2023-05-02T03:09:04.494Z,1.13
2023-05-02T03:10:04.528Z,0.68
2023-05-02T03:11:04.553Z,0.71
2023-05-02T03:12:04.586Z,0.93
2023-05-02T03:13:04.630Z,0.55
2023-05-02T03:14:04.669Z,0.55
2023-05-02T03:15:04.729Z,0.65
2023-05-02T03:16:04.835Z,0.82
2023-05-02T03:17:04.859Z,0.65
2023-05-02T03:18:04.923Z,0.67
2023-05-02T03:19:04.970Z,0.81
2023-05-02T03:20:04.950Z,0.58
2023-05-02T03:21:05.017Z,0.61
2023-05-02T03:22:05.075Z,0.84
2023-05-02T03:23:05.154Z,0.73
2023-05-02T03:24:05.176Z,0.48
2023-05-02T03:25:05.227Z,0.61
2023-05-02T03:26:05.276Z,0.86
2023-05-02T03:27:05.272Z,0.73
2023-05-02T03:28:05.343Z,0.74
2023-05-02T03:29:05.397Z,0.91
2023-05-02T03:30:05.456Z,0.64
2023-05-02T03:31:05.602Z,0.65
2023-05-02T03:32:05.595Z,0.69
2023-05-02T03:33:05.613Z,0.81
2023-05-02T03:34:05.613Z,0.96
2023-05-02T03:35:05.667Z,0.46
2023-05-02T03:36:05.810Z,0.66
2023-05-02T03:37:05.814Z,0.78
2023-05-02T03:38:05.848Z,0.58
2023-05-02T03:39:05.864Z,0.78
2023-05-02T03:40:05.941Z,0.81
2023-05-02T03:41:06.018Z,0.76
2023-05-02T03:42:06.050Z,0.63
2023-05-02T03:43:06.113Z,0.73
2023-05-02T03:44:06.203Z,0.84
2023-05-02T03:45:06.191Z,0.80
2023-05-02T03:46:06.293Z,0.62
2023-05-02T03:47:06.401Z,0.84
2023-05-02T03:48:06.556Z,0.76
2023-05-02T03:49:06.412Z,0.67
2023-05-02T03:50:06.466Z,0.72
2023-05-02T03:51:06.517Z,0.68
2023-05-02T03:52:06.565Z,0.48
2023-05-02T03:53:06.641Z,1.04
2023-05-02T03:54:06.698Z,0.84
2023-05-02T03:55:06.713Z,0.51
2023-05-02T03:56:06.820Z,0.65
2023-05-02T03:57:06.876Z,0.85
2023-05-02T03:58:06.928Z,1.01
2023-05-02T03:59:06.989Z,0.76
2023-05-02T04:00:07.000Z,0.73
2023-05-02T04:01:07.107Z,0.71
2023-05-02T04:02:07.169Z,0.61
2023-05-02T04:03:07.325Z,0.82
2023-05-02T04:04:07.385Z,0.44
2023-05-02T04:05:07.238Z,0.59
2023-05-02T04:06:07.302Z,0.57
2023-05-02T04:07:07.250Z,0.64
2023-05-02T04:08:07.264Z,0.67
2023-05-02T04:09:07.270Z,0.72
2023-05-02T04:10:07.298Z,0.56
2023-05-02T04:11:07.283Z,0.52
2023-05-02T04:12:07.299Z,0.38
2023-05-02T04:13:07.285Z,0.45
2023-05-02T04:14:07.325Z,0.52
2023-05-02T04:15:07.350Z,0.48
2023-05-02T04:16:07.350Z,0.42
2023-05-02T04:17:07.447Z,0.40
2023-05-02T04:18:07.428Z,0.23
2023-05-02T04:19:07.433Z,0.32
2023-05-02T04:20:07.731Z,0.30
2023-05-02T04:21:07.517Z,0.36
2023-05-02T04:22:07.450Z,0.19
2023-05-02T04:23:07.514Z,0.27
2023-05-02T04:24:07.506Z,0.28
2023-05-02T04:25:07.589Z,0.46
2023-05-02T04:26:07.591Z,0.41
2023-05-02T04:27:07.637Z,0.42
2023-05-02T04:28:07.673Z,0.63
2023-05-02T04:29:07.759Z,0.44
2023-05-02T04:30:07.762Z,0.34
2023-05-02T04:31:07.812Z,0.32
2023-05-02T04:32:07.824Z,0.23
2023-05-02T04:33:07.913Z,0.47
2023-05-02T04:34:07.941Z,0.48
2023-05-02T04:35:08.005Z,0.45
2023-05-02T04:36:08.054Z,0.33
2023-05-02T04:37:08.113Z,0.23
2023-05-02T04:38:08.179Z,0.41
2023-05-02T04:39:08.222Z,0.29
2023-05-02T04:40:08.251Z,0.44
2023-05-02T04:41:09.210Z,0.39
2023-05-02T04:42:08.406Z,0.28
2023-05-02T04:43:08.461Z,0.41
2023-05-02T04:44:08.525Z,0.33
2023-05-02T04:45:08.533Z,0.32
2023-05-02T04:46:08.715Z,0.50
2023-05-02T04:47:08.701Z,0.48
2023-05-02T04:48:08.788Z,0.42
2023-05-02T04:49:08.797Z,0.52
2023-05-02T04:50:08.883Z,0.49
2023-05-02T04:51:08.942Z,0.19
2023-05-02T04:52:08.986Z,0.30
2023-05-02T04:53:09.085Z,0.44
2023-05-02T04:54:09.108Z,0.22
2023-05-02T04:55:09.161Z,0.27
2023-05-02T04:56:09.213Z,0.34
2023-05-02T04:57:09.275Z,0.32
2023-05-02T04:58:09.336Z,0.45
2023-05-02T04:59:09.378Z,0.40
2023-05-02T05:00:09.453Z,0.29
2023-05-02T05:01:09.550Z,0.33
2023-05-02T05:02:09.675Z,0.43
2023-05-02T05:03:09.689Z,0.47
2023-05-02T05:04:09.846Z,0.54
2023-05-02T05:05:09.801Z,0.22
2023-05-02T05:06:09.892Z,0.42
2023-05-02T05:07:09.863Z,0.67
2023-05-02T05:08:09.948Z,0.39
2023-05-02T05:09:09.968Z,0.25
2023-05-02T05:10:10.041Z,0.21
2023-05-02T05:11:10.077Z,0.31
2023-05-02T05:12:10.149Z,0.43
2023-05-02T05:13:10.224Z,0.33
2023-05-02T05:14:10.233Z,0.47
2023-05-02T05:15:10.379Z,0.38
2023-05-02T05:16:10.451Z,0.42
2023-05-02T05:17:10.429Z,0.30
2023-05-02T05:18:10.605Z,0.34
2023-05-02T05:19:10.554Z,0.44
2023-05-02T05:20:10.625Z,0.33
2023-05-02T05:21:10.666Z,0.45
2023-05-02T05:22:10.731Z,0.20
2023-05-02T05:23:10.834Z,0.31
2023-05-02T05:24:10.855Z,0.36
2023-05-02T05:25:10.962Z,0.18
2023-05-02T05:26:11.023Z,0.29
2023-05-02T05:27:11.079Z,0.21
2023-05-02T05:28:11.070Z,0.57
2023-05-02T05:29:11.152Z,0.36
2023-05-02T05:30:11.192Z,0.32
2023-05-02T05:31:11.343Z,0.26
2023-05-02T05:32:11.425Z,0.29
2023-05-02T05:33:11.451Z,0.40
2023-05-02T05:34:11.480Z,0.35
2023-05-02T05:35:11.584Z,0.63
2023-05-02T05:36:11.538Z,0.73
2023-05-02T05:37:11.606Z,0.94
2023-05-02T05:38:11.591Z,0.97
2023-05-02T05:39:11.592Z,0.89
2023-05-02T05:40:11.642Z,0.84
2023-05-02T05:41:11.672Z,1.16
2023-05-02T05:42:11.731Z,1.45
2023-05-02T05:43:11.748Z,1.14
2023-05-02T05:44:11.839Z,1.41
2023-05-02T05:45:11.873Z,1.33
2023-05-02T05:46:11.957Z,1.26
2023-05-02T05:47:12.027Z,0.69
2023-05-02T05:48:12.028Z,0.77
2023-05-02T05:49:12.069Z,0.94
2023-05-02T05:50:12.091Z,0.93
2023-05-02T05:51:12.154Z,0.75
2023-05-02T05:52:12.220Z,0.85
2023-05-02T05:53:12.273Z,0.87
2023-05-02T05:54:12.323Z,0.99
2023-05-02T05:55:12.384Z,0.95
2023-05-02T05:56:12.464Z,0.79
2023-05-02T05:57:12.505Z,1.67
2023-05-02T05:58:12.546Z,0.59
2023-05-02T05:59:12.566Z,0.75
2023-05-02T06:00:12.674Z,0.59
2023-05-02T06:01:12.739Z,0.62
2023-05-02T06:02:12.769Z,0.68
2023-05-02T06:03:12.886Z,0.62
2023-05-02T06:04:12.921Z,0.66
2023-05-02T06:05:13.142Z,0.47
2023-05-02T06:06:13.085Z,0.66
2023-05-02T06:07:13.024Z,0.72
2023-05-02T06:08:13.031Z,0.47
2023-05-02T06:09:13.123Z,0.60
2023-05-02T06:10:13.252Z,0.83
2023-05-02T06:11:13.274Z,0.81
2023-05-02T06:12:13.269Z,0.64
2023-05-02T06:13:13.303Z,0.64
2023-05-02T06:14:13.354Z,0.83
2023-05-02T06:15:13.395Z,0.54
2023-05-02T06:16:13.504Z,0.50
2023-05-02T06:17:13.501Z,0.47
2023-05-02T06:18:13.650Z,0.46
2023-05-02T06:19:13.613Z,0.52
2023-05-02T06:20:13.681Z,0.54
2023-05-02T06:21:13.697Z,0.45
2023-05-02T06:22:13.735Z,0.33
2023-05-02T06:23:13.821Z,0.39
2023-05-02T06:24:13.867Z,0.39
2023-05-02T06:25:13.908Z,0.37
2023-05-02T06:26:13.925Z,0.34
2023-05-02T06:27:13.989Z,0.66
2023-05-02T06:28:14.051Z,0.58
2023-05-02T06:29:14.092Z,0.46
2023-05-02T06:30:14.126Z,0.31
2023-05-02T06:31:14.192Z,0.42
2023-05-02T06:32:14.217Z,0.71
2023-05-02T06:33:14.295Z,0.35
2023-05-02T06:34:14.307Z,0.50
2023-05-02T06:35:14.344Z,0.47
2023-05-02T06:36:14.402Z,0.40
2023-05-02T06:37:14.761Z,0.62
2023-05-02T06:38:15.248Z,0.28
2023-05-02T06:39:14.543Z,0.33
2023-05-02T06:40:14.840Z,0.46
2023-05-02T06:41:17.261Z,0.35
2023-05-02T06:42:14.747Z,0.42
2023-05-02T06:43:14.783Z,0.72
2023-05-02T06:44:14.596Z,0.59
2023-05-02T06:45:14.632Z,0.56
2023-05-02T06:46:14.609Z,0.44
2023-05-02T06:47:14.887Z,0.64
2023-05-02T06:48:14.656Z,0.36
2023-05-02T06:49:14.565Z,0.66
2023-05-02T06:50:14.618Z,0.80
2023-05-02T06:51:14.586Z,0.50
2023-05-02T06:52:14.573Z,0.70
2023-05-02T06:53:14.554Z,0.77
2023-05-02T06:54:14.569Z,0.54
2023-05-02T06:55:14.543Z,0.57
2023-05-02T06:56:15.236Z,0.51
2023-05-02T06:57:14.550Z,0.68
2023-05-02T06:58:14.803Z,0.52
2023-05-02T06:59:14.519Z,0.69
2023-05-02T07:00:14.528Z,0.80
2023-05-02T07:01:14.538Z,0.33
2023-05-02T07:02:14.479Z,0.71
2023-05-02T07:03:14.536Z,0.57
2023-05-02T07:04:14.613Z,0.63
2023-05-02T07:05:14.480Z,0.53
2023-05-02T07:06:14.541Z,0.31
2023-05-02T07:07:14.459Z,0.45
2023-05-02T07:08:14.485Z,0.44
2023-05-02T07:09:14.455Z,0.34
2023-05-02T07:10:14.738Z,0.73
2023-05-02T07:11:14.523Z,0.60
2023-05-02T07:12:14.454Z,0.66
2023-05-02T07:13:14.426Z,0.40
2023-05-02T07:14:14.766Z,0.63
2023-05-02T07:15:14.383Z,0.64
2023-05-02T07:16:14.778Z,0.64
2023-05-02T07:17:14.739Z,0.54
2023-05-02T07:18:14.826Z,0.48
2023-05-02T07:19:14.756Z,0.79
2023-05-02T07:20:14.445Z,0.58
2023-05-02T07:21:14.388Z,0.49
2023-05-02T07:22:14.428Z,0.54
2023-05-02T07:23:14.363Z,0.51
2023-05-02T07:24:14.730Z,0.46
2023-05-02T07:25:14.461Z,0.54
2023-05-02T07:26:14.483Z,0.28
2023-05-02T07:27:14.552Z,0.53
2023-05-02T07:28:14.761Z,0.64
2023-05-02T07:29:14.733Z,0.41
2023-05-02T07:30:14.718Z,0.73
2023-05-02T07:31:14.911Z,0.87
2023-05-02T07:32:14.776Z,1.49
2023-05-02T07:33:14.796Z,0.91
2023-05-02T07:34:14.831Z,1.24
2023-05-02T07:35:14.808Z,0.79
2023-05-02T07:36:14.892Z,1.22
2023-05-02T07:37:15.234Z,1.34
2023-05-02T07:38:14.903Z,1.52
2023-05-02T07:39:14.969Z,1.22
2023-05-02T07:40:14.994Z,1.41
2023-05-02T07:41:14.986Z,1.21
2023-05-02T07:42:15.294Z,1.07
2023-05-02T07:43:15.017Z,1.19
2023-05-02T07:44:15.137Z,1.26
2023-05-02T07:45:15.127Z,1.62
2023-05-02T07:46:15.219Z,1.06
2023-05-02T07:47:15.709Z,1.24
2023-05-02T07:48:15.785Z,1.21
2023-05-02T07:49:15.335Z,1.13
2023-05-02T07:50:15.355Z,1.07
2023-05-02T07:51:15.393Z,0.73
2023-05-02T07:52:15.433Z,1.07
2023-05-02T07:53:15.414Z,0.93
2023-05-02T07:54:15.456Z,1.10
2023-05-02T07:55:15.496Z,1.43
2023-05-02T07:56:15.463Z,1.36
2023-05-02T07:57:15.519Z,1.07
2023-05-02T07:58:16.015Z,1.14
2023-05-02T07:59:15.503Z,0.99
2023-05-02T08:00:15.523Z,0.86
2023-05-02T08:01:15.713Z,0.78
2023-05-02T08:02:15.560Z,0.85
2023-05-02T08:03:15.691Z,0.82
2023-05-02T08:04:15.894Z,1.13
2023-05-02T08:05:15.752Z,1.02
2023-05-02T08:06:15.601Z,0.89
2023-05-02T08:07:15.758Z,1.16
2023-05-02T08:08:15.581Z,0.78
2023-05-02T08:09:15.600Z,0.78
2023-05-02T08:10:15.616Z,1.15
2023-05-02T08:11:15.613Z,0.83
2023-05-02T08:12:15.610Z,0.65
2023-05-02T08:13:15.617Z,0.93
2023-05-02T08:14:15.616Z,0.97
2023-05-02T08:15:15.664Z,1.80
2023-05-02T08:16:15.674Z,0.96
2023-05-02T08:17:15.654Z,0.77
2023-05-02T08:18:15.819Z,1.08
2023-05-02T08:19:15.676Z,0.82
2023-05-02T08:20:15.674Z,1.35
2023-05-02T08:21:15.697Z,0.95
2023-05-02T08:22:15.692Z,1.02
2023-05-02T08:23:15.720Z,1.00
2023-05-02T08:24:15.703Z,1.14
2023-05-02T08:25:15.729Z,0.95
2023-05-02T08:26:15.691Z,1.85
2023-05-02T08:27:15.746Z,1.34
2023-05-02T08:28:15.793Z,1.52
2023-05-02T08:29:16.209Z,1.50
2023-05-02T08:30:15.845Z,1.93
2023-05-02T08:31:15.878Z,1.47
2023-05-02T08:32:15.959Z,1.89
2023-05-02T08:33:15.981Z,1.42
2023-05-02T08:34:15.965Z,1.69
2023-05-02T08:35:15.951Z,1.24
2023-05-02T08:36:15.942Z,1.56
2023-05-02T08:37:16.013Z,1.21
2023-05-02T08:38:16.045Z,1.39
2023-05-02T08:39:16.081Z,0.76
2023-05-02T08:40:20.118Z,1.12
2023-05-02T08:41:20.156Z,0.92
2023-05-02T08:42:16.116Z,1.20
2023-05-02T08:43:16.219Z,1.27
2023-05-02T08:44:16.065Z,1.72
2023-05-02T08:45:16.808Z,1.13
2023-05-02T08:46:16.274Z,1.40
2023-05-02T08:47:16.103Z,1.38
2023-05-02T08:48:16.101Z,0.96
2023-05-02T08:49:16.092Z,1.17
2023-05-02T08:50:16.057Z,1.21
2023-05-02T08:51:16.057Z,1.11
2023-05-02T08:52:16.090Z,0.99
2023-05-02T08:53:16.038Z,1.41
2023-05-02T08:54:16.032Z,0.99
2023-05-02T08:55:16.035Z,0.77
2023-05-02T08:56:15.996Z,1.08
2023-05-02T08:57:15.986Z,1.47
2023-05-02T08:58:17.627Z,0.83
2023-05-02T08:59:16.027Z,1.22
2023-05-02T09:00:16.031Z,1.26
2023-05-02T09:01:16.079Z,0.57
2023-05-02T09:02:15.962Z,0.56
2023-05-02T09:03:16.000Z,1.01
2023-05-02T09:04:16.208Z,0.76
2023-05-02T09:05:15.951Z,0.81
2023-05-02T09:06:15.963Z,0.81
2023-05-02T09:07:15.978Z,0.63
2023-05-02T09:08:15.970Z,0.74
2023-05-02T09:09:17.181Z,0.59
2023-05-02T09:10:15.897Z,0.53
2023-05-02T09:11:15.902Z,0.87
2023-05-02T09:12:15.885Z,0.65
2023-05-02T09:13:16.216Z,0.95
2023-05-02T09:14:15.898Z,1.13
2023-05-02T09:15:18.224Z,0.87
2023-05-02T09:16:15.978Z,1.47
2023-05-02T09:17:16.219Z,0.68
2023-05-02T09:18:15.861Z,0.66
2023-05-02T09:19:15.837Z,0.53
2023-05-02T09:20:16.078Z,0.54
2023-05-02T09:21:17.939Z,0.73
2023-05-02T09:22:15.809Z,0.55
2023-05-02T09:23:15.849Z,0.50
2023-05-02T09:24:15.822Z,0.46
2023-05-02T09:25:15.793Z,0.55
2023-05-02T09:26:15.812Z,0.41
2023-05-02T09:27:15.861Z,0.47
2023-05-02T09:28:16.198Z,0.52
2023-05-02T09:29:15.802Z,0.68
2023-05-02T09:30:16.734Z,0.88
2023-05-02T09:31:23.062Z,0.73
2023-05-02T09:32:17.253Z,1.46
2023-05-02T09:33:17.471Z,1.60
2023-05-02T09:34:16.177Z,1.09
2023-05-02T09:35:15.800Z,1.39
2023-05-02T09:36:15.756Z,1.42
2023-05-02T09:37:15.763Z,1.29
2023-05-02T09:38:15.729Z,1.38
2023-05-02T09:39:15.771Z,1.03
2023-05-02T09:40:16.179Z,0.90
2023-05-02T09:41:15.727Z,1.18
2023-05-02T09:42:15.695Z,0.91
2023-05-02T09:43:15.686Z,1.25
2023-05-02T09:44:15.712Z,1.20
2023-05-02T09:45:15.733Z,1.08
2023-05-02T09:46:15.760Z,0.97
2023-05-02T09:47:15.835Z,1.01
2023-05-02T09:48:16.180Z,1.09
2023-05-02T09:49:15.825Z,1.39
2023-05-02T09:50:15.836Z,1.01
2023-05-02T09:51:15.842Z,0.73
2023-05-02T09:52:15.849Z,1.54
2023-05-02T09:53:15.853Z,0.76
2023-05-02T09:54:15.867Z,1.05
2023-05-02T09:55:15.874Z,0.89
2023-05-02T09:56:15.883Z,0.79
2023-05-02T09:57:15.898Z,0.86
2023-05-02T09:58:15.849Z,0.76
2023-05-02T09:59:15.901Z,0.67
2023-05-02T10:00:15.838Z,0.81
2023-05-02T10:01:15.893Z,0.58
2023-05-02T10:02:15.845Z,0.89
2023-05-02T10:03:15.946Z,0.95
2023-05-02T10:04:16.002Z,0.72
2023-05-02T10:05:15.901Z,0.52
2023-05-02T10:06:15.914Z,0.81
2023-05-02T10:07:15.903Z,0.77
2023-05-02T10:08:15.903Z,0.67
2023-05-02T10:09:19.607Z,0.45
2023-05-02T10:10:15.883Z,0.78
2023-05-02T10:11:15.888Z,0.80
2023-05-02T10:12:15.895Z,1.12
2023-05-02T10:13:15.851Z,0.66
2023-05-02T10:14:15.819Z,1.02
2023-05-02T10:15:15.865Z,0.70
2023-05-02T10:16:15.866Z,0.67
2023-05-02T10:17:15.865Z,0.46
2023-05-02T10:18:15.891Z,0.79
2023-05-02T10:19:15.853Z,0.75
2023-05-02T10:20:15.839Z,0.72
2023-05-02T10:21:15.860Z,0.76
2023-05-02T10:22:15.814Z,0.82
2023-05-02T10:23:15.800Z,0.75
2023-05-02T10:24:15.889Z,0.58
2023-05-02T10:25:15.759Z,0.61
2023-05-02T10:26:15.792Z,0.62
2023-05-02T10:27:15.814Z,0.94
2023-05-02T10:28:15.823Z,0.76
2023-05-02T10:29:15.821Z,0.69
2023-05-02T10:30:15.741Z,1.69
2023-05-02T10:31:15.785Z,1.46
2023-05-02T10:32:15.755Z,1.79
2023-05-02T10:33:15.726Z,1.45
2023-05-02T10:34:15.787Z,1.72
2023-05-02T10:35:15.742Z,1.49
2023-05-02T10:36:15.703Z,1.44
2023-05-02T10:37:15.718Z,0.77
2023-05-02T10:38:15.707Z,1.86
2023-05-02T10:39:15.688Z,2.10
2023-05-02T10:40:15.804Z,1.35
2023-05-02T10:41:15.725Z,1.35
2023-05-02T10:42:16.674Z,2.08
2023-05-02T10:43:15.828Z,1.70
2023-05-02T10:44:15.827Z,1.73
2023-05-02T10:45:15.907Z,1.14
2023-05-02T10:46:15.934Z,1.15
2023-05-02T10:47:16.009Z,1.26
2023-05-02T10:48:15.987Z,1.62
2023-05-02T10:49:16.003Z,1.70
2023-05-02T10:50:16.047Z,1.50
2023-05-02T10:51:16.074Z,1.54
2023-05-02T10:52:16.117Z,1.24
2023-05-02T10:53:16.175Z,1.44
2023-05-02T10:54:16.173Z,0.89
2023-05-02T10:55:16.242Z,1.24
2023-05-02T10:56:16.304Z,1.12
2023-05-02T10:57:16.274Z,1.27
2023-05-02T10:58:16.310Z,1.50
2023-05-02T10:59:16.359Z,1.41
2023-05-02T11:00:16.412Z,1.96
2023-05-02T11:01:16.494Z,1.74
2023-05-02T11:02:16.503Z,1.17
2023-05-02T11:03:16.577Z,1.28
2023-05-02T11:04:16.488Z,1.38
2023-05-02T11:05:16.495Z,1.70
2023-05-02T11:06:16.590Z,1.58
2023-05-02T11:07:16.615Z,2.02
2023-05-02T11:08:17.957Z,1.76
2023-05-02T11:09:16.604Z,1.53
2023-05-02T11:10:16.643Z,1.89
2023-05-02T11:11:16.628Z,1.89
2023-05-02T11:12:16.605Z,1.91
2023-05-02T11:13:16.576Z,1.42
2023-05-02T11:14:17.593Z,1.03
2023-05-02T11:15:16.585Z,1.26
2023-05-02T11:16:16.591Z,1.60
2023-05-02T11:17:16.568Z,1.38
2023-05-02T11:18:16.659Z,1.59
2023-05-02T11:19:16.554Z,1.63
2023-05-02T11:20:16.583Z,2.22
2023-05-02T11:21:17.187Z,2.55
2023-05-02T11:22:16.550Z,2.89
2023-05-02T11:23:16.661Z,1.75
2023-05-02T11:24:16.689Z,2.48
2023-05-02T11:25:16.675Z,2.69
2023-05-02T11:26:16.579Z,1.92
2023-05-02T11:27:16.534Z,2.04
2023-05-02T11:28:16.522Z,1.70
2023-05-02T11:29:16.486Z,1.91
2023-05-02T11:30:16.531Z,1.99
2023-05-02T11:31:16.539Z,1.60
2023-05-02T11:32:16.622Z,1.40
2023-05-02T11:33:16.611Z,1.32
2023-05-02T11:34:16.653Z,1.54
2023-05-02T11:35:16.625Z,1.45
2023-05-02T11:36:16.662Z,1.21
2023-05-02T11:37:16.737Z,1.21
2023-05-02T11:38:16.790Z,0.97
2023-05-02T11:39:16.776Z,1.18
2023-05-02T11:40:16.802Z,0.60
2023-05-02T11:41:16.834Z,0.83
2023-05-02T11:42:16.916Z,1.36
2023-05-02T11:43:16.921Z,1.16
2023-05-02T11:44:16.955Z,2.59
2023-05-02T11:45:16.998Z,0.99
2023-05-02T11:46:17.122Z,1.41
2023-05-02T11:47:17.090Z,0.64
2023-05-02T11:48:17.099Z,0.84
2023-05-02T11:49:17.169Z,0.93
2023-05-02T11:50:17.238Z,0.80
2023-05-02T11:51:17.649Z,0.92
2023-05-02T11:52:17.292Z,1.14
2023-05-02T11:53:17.333Z,0.65
2023-05-02T11:54:17.396Z,0.90
2023-05-02T11:55:17.433Z,0.65
2023-05-02T11:56:17.530Z,0.98
2023-05-02T11:57:17.590Z,0.78
2023-05-02T11:58:17.620Z,0.78
2023-05-02T11:59:18.541Z,0.63
2023-05-02T12:00:17.675Z,0.78
2023-05-02T12:01:17.726Z,0.69
2023-05-02T12:02:17.749Z,0.68
2023-05-02T12:03:17.808Z,0.87
2023-05-02T12:04:17.719Z,0.90
2023-05-02T12:05:17.744Z,0.62
2023-05-02T12:06:17.845Z,0.55
2023-05-02T12:07:17.832Z,0.93
2023-05-02T12:08:17.815Z,0.56
2023-05-02T12:09:17.797Z,0.61
2023-05-02T12:10:17.825Z,0.80
2023-05-02T12:11:17.867Z,1.00
2023-05-02T12:12:17.869Z,0.52
2023-05-02T12:13:17.904Z,0.70
2023-05-02T12:14:18.139Z,0.78
2023-05-02T12:15:17.959Z,0.84
2023-05-02T12:16:18.151Z,0.88
2023-05-02T12:17:18.022Z,0.92
2023-05-02T12:18:19.510Z,0.81
2023-05-02T12:19:18.044Z,0.57
2023-05-02T12:20:18.032Z,0.65
2023-05-02T12:21:17.992Z,0.64
2023-05-02T12:22:18.031Z,0.90
2023-05-02T12:23:18.007Z,1.04
2023-05-02T12:24:17.981Z,0.74
2023-05-02T12:25:17.987Z,1.24
2023-05-02T12:26:18.029Z,0.80
2023-05-02T12:27:18.027Z,0.63
2023-05-02T12:28:17.971Z,0.79
2023-05-02T12:29:17.955Z,1.06
2023-05-02T12:30:17.963Z,1.31
2023-05-02T12:31:18.054Z,1.04
2023-05-02T12:32:17.948Z,0.68
2023-05-02T12:33:17.944Z,0.86
2023-05-02T12:34:17.924Z,1.03
2023-05-02T12:35:17.922Z,0.66
2023-05-02T12:36:17.921Z,0.97
2023-05-02T12:37:17.923Z,0.86
2023-05-02T12:38:17.926Z,1.01
2023-05-02T12:39:17.901Z,0.70
2023-05-02T12:40:17.957Z,0.71
2023-05-02T12:41:17.881Z,1.17
2023-05-02T12:42:17.891Z,0.67
2023-05-02T12:43:17.882Z,1.02
2023-05-02T12:44:17.888Z,0.97
2023-05-02T12:45:17.880Z,0.74
2023-05-02T12:46:17.885Z,1.04
2023-05-02T12:47:17.973Z,0.75
2023-05-02T12:48:17.832Z,0.75
2023-05-02T12:49:17.847Z,0.74
2023-05-02T12:50:17.835Z,0.81
2023-05-02T12:51:17.833Z,1.21
2023-05-02T12:52:17.815Z,0.94
2023-05-02T12:53:17.818Z,1.08
2023-05-02T12:54:17.800Z,0.71
2023-05-02T12:55:17.814Z,0.90
2023-05-02T12:56:17.775Z,0.79
2023-05-02T12:57:17.769Z,0.99
2023-05-02T12:58:17.789Z,0.99
2023-05-02T12:59:17.782Z,1.26
2023-05-02T13:00:17.761Z,1.13
2023-05-02T13:01:17.808Z,0.80
2023-05-02T13:02:17.770Z,1.26
2023-05-02T13:03:17.787Z,0.74
2023-05-02T13:04:17.826Z,1.17
2023-05-02T13:05:17.717Z,1.02
2023-05-02T13:06:17.750Z,1.18
2023-05-02T13:07:17.732Z,0.96
2023-05-02T13:08:17.688Z,0.80
2023-05-02T13:09:17.699Z,0.90
2023-05-02T13:10:17.702Z,0.90
2023-05-02T13:11:17.707Z,1.08
2023-05-02T13:12:17.762Z,0.95
2023-05-02T13:13:17.726Z,1.00
2023-05-02T13:14:17.778Z,0.73
2023-05-02T13:15:17.811Z,1.20
2023-05-02T13:16:17.910Z,1.16
2023-05-02T13:17:17.964Z,0.72
2023-05-02T13:18:17.853Z,1.06
2023-05-02T13:19:17.897Z,0.78